| time (UTC) | temp F | wind direction | speed knots | gust knots | rain 1hr in | rain 24hr in | rain mn in | humidity % | barometer mb |
| 20260906010015 | 52 | 0.0 | 0.0 | 0.00 | 0.00 | 0.00 | 99 | 1020.3 | |
| 20260906005015 | 52 | 0.0 | 0.0 | 0.00 | 0.00 | 0.00 | 99 | 1020.3 | |
| 20260906004015 | 51 | 0.0 | 0.0 | 0.00 | 0.00 | 0.00 | 99 | 1020.1 | |
| 20260906003015 | 51 | 0.0 | 0.0 | 0.00 | 0.00 | 0.00 | 99 | 1020.1 | |
| 20260906002015 | 50 | 0.0 | 0.0 | 0.00 | 0.00 | 0.00 | 99 | 1019.6 | |
| 20260906001015 | 51 | 0.0 | 0.0 | 0.00 | 0.00 | 0.00 | 99 | 1019.8 | |
| 20260906000015 | 51 | 0.0 | 0.0 | 0.00 | 0.00 | 0.00 | 99 | 1020.0 | |
| 20260905235015 | 51 | 0.0 | 0.0 | 0.00 | 0.00 | 0.00 | 99 | 1019.9 | |
| 20260905234015 | 51 | 0.0 | 0.0 | 0.00 | 0.00 | 0.00 | 99 | 1019.9 | |
| 20260905233015 | 52 | 0.0 | 0.0 | 0.00 | 0.00 | 0.00 | 99 | 1019.7 | |
| 20260905232015 | 52 | 0.0 | 0.0 | 0.00 | 0.00 | 0.00 | 99 | 1019.7 | |
| 20260905231015 | 53 | 0.0 | 0.0 | 0.00 | 0.00 | 0.00 | 99 | 1019.6 | |
| 20260905230015 | 53 | 0.0 | 0.0 | 0.00 | 0.00 | 0.00 | 99 | 1019.6 | |
| 20260905225015 | 53 | 0.0 | 0.0 | 0.00 | 0.00 | 0.00 | 99 | 1019.6 | |
| 20260905224015 | 53 | 0.0 | 0.0 | 0.00 | 0.00 | 0.00 | 99 | 1019.3 | |
| 20260905223015 | 53 | 0.0 | 0.0 | 0.00 | 0.00 | 0.00 | 99 | 1019.4 | |
| 20260905222015 | 54 | 0.0 | 0.0 | 0.00 | 0.00 | 0.00 | 99 | 1019.2 | |
| 20260905221015 | 54 | 0.0 | 0.0 | 0.00 | 0.00 | 0.00 | 99 | 1019.2 | |
| 20260905220015 | 55 | 0.0 | 0.0 | 0.00 | 0.00 | 0.00 | 99 | 1019.3 | |
| 20260905215015 | 55 | 0.0 | 0.0 | 0.00 | 0.00 | 0.00 | 99 | 1019.2 | |
| 20260905214015 | 55 | 0.0 | 0.0 | 0.00 | 0.00 | 0.00 | 99 | 1019.0 | |
| 20260905213015 | 55 | 0.0 | 0.0 | 0.00 | 0.00 | 0.00 | 99 | 1019.1 | |
| 20260905212017 | 56 | 0.0 | 0.0 | 0.00 | 0.00 | 0.00 | 95 | 1018.9 | |
| 20260905211015 | 55 | 0.0 | 0.0 | 0.00 | 0.00 | 0.00 | 96 | 1018.9 | |
| 20260905210015 | 55 | 0.0 | 0.0 | 0.00 | 0.00 | 0.00 | 98 | 1019.1 | |
| 20260905205015 | 56 | 0.0 | 0.0 | 0.00 | 0.00 | 0.00 | 95 | 1018.8 | |
| 20260905204015 | 56 | 0.0 | 0.0 | 0.00 | 0.00 | 0.00 | 92 | 1018.6 | |
| 20260905203015 | 57 | 0.0 | 0.0 | 0.00 | 0.00 | 0.00 | 93 | 1018.5 | |
| 20260905202015 | 57 | 0.0 | 0.0 | 0.00 | 0.00 | 0.00 | 88 | 1018.3 | |
| 20260905201015 | 57 | 0.0 | 0.0 | 0.00 | 0.00 | 0.00 | 88 | 1018.2 | |
| 20260905200015 | 58 | 0.0 | 0.0 | 0.00 | 0.00 | 0.00 | 84 | 1018.2 | |
| 20260905195015 | 59 | 0.0 | 0.0 | 0.00 | 0.00 | 0.00 | 82 | 1018.1 | |
| 20260905194015 | 59 | 0.0 | 0.0 | 0.00 | 0.00 | 0.00 | 80 | 1018.1 | |
| 20260905193015 | 60 | 0.0 | 0.0 | 0.00 | 0.00 | 0.00 | 80 | 1018.0 | |
| 20260905192015 | 60 | 0.0 | 0.0 | 0.00 | 0.00 | 0.00 | 77 | 1017.9 | |
| 20260905191015 | 60 | 0.0 | 0.0 | 0.00 | 0.00 | 0.00 | 76 | 1017.9 | |
| 20260905190015 | 60 | 0.0 | 0.0 | 0.00 | 0.00 | 0.00 | 76 | 1017.8 | |
| 20260905185015 | 60 | 0.0 | 0.0 | 0.00 | 0.00 | 0.00 | 74 | 1017.8 | |
| 20260905184015 | 61 | 0.0 | 0.0 | 0.00 | 0.00 | 0.00 | 72 | 1017.7 | |
| 20260905183015 | 61 | 0.0 | 0.0 | 0.00 | 0.00 | 0.00 | 71 | 1017.5 | |
| 20260905182015 | 62 | 0.0 | 0.0 | 0.00 | 0.00 | 0.00 | 68 | 1017.2 | |
| 20260905181015 | 62 | 0.0 | 0.0 | 0.00 | 0.00 | 0.00 | 67 | 1017.2 | |
| 20260905180015 | 62 | 0.0 | 0.0 | 0.00 | 0.00 | 0.00 | 65 | 1017.1 | |
| 20260905175015 | 63 | 0.0 | 0.0 | 0.00 | 0.00 | 0.00 | 64 | 1016.8 | |
| 20260905174015 | 64 | 0.0 | 0.0 | 0.00 | 0.00 | 0.00 | 61 | 1016.5 | |
| 20260905173017 | 65 | 0.0 | 0.0 | 0.00 | 0.00 | 0.00 | 58 | 1016.1 | |
| 20260905172015 | 66 | 0.0 | 0.0 | 0.00 | 0.00 | 0.00 | 55 | 1015.9 | |
| 20260905171015 | 68 | 0.0 | 0.0 | 0.00 | 0.00 | 0.00 | 51 | 1015.8 | |
| 20260905170015 | 69 | 0.0 | 0.0 | 0.00 | 0.00 | 0.00 | 49 | 1015.6 | |
| 20260905165015 | 72 | 0.0 | 0.0 | 0.00 | 0.00 | 0.00 | 45 | 1015.3 | |
| 20260905164015 | 74 | 0.0 | 0.0 | 0.00 | 0.00 | 0.00 | 42 | 1015.0 | |
| 20260905163015 | 76 | 0.0 | 0.0 | 0.00 | 0.00 | 0.00 | 39 | 1014.9 | |
| 20260905162015 | 80 | 0.0 | 0.0 | 0.00 | 0.00 | 0.00 | 34 | 1014.6 | |
| 20260905161015 | 80 | 0.0 | 0.0 | 0.00 | 0.00 | 0.00 | 35 | 1014.6 | |
| 20260905160015 | 79 | 0.0 | 0.0 | 0.00 | 0.00 | 0.00 | 35 | 1014.7 | |
| 20260905155015 | 79 | 0.0 | 0.0 | 0.00 | 0.00 | 0.00 | 35 | 1014.6 | |
| 20260905154015 | 79 | 0.0 | 0.0 | 0.00 | 0.00 | 0.00 | 35 | 1014.7 | |
| 20260905153015 | 79 | 0.0 | 0.0 | 0.00 | 0.00 | 0.00 | 35 | 1014.7 | |
| 20260905152015 | 78 | 0.0 | 0.0 | 0.00 | 0.00 | 0.00 | 37 | 1014.6 | |
| 20260905151015 | 77 | 0.0 | 0.0 | 0.00 | 0.00 | 0.00 | 37 | 1014.8 | |
| 20260905150015 | 77 | 0.0 | 0.0 | 0.00 | 0.00 | 0.00 | 37 | 1014.8 | |
| 20260905145015 | 78 | 0.0 | 0.0 | 0.00 | 0.00 | 0.00 | 37 | 1014.9 | |
| 20260905144015 | 78 | 0.0 | 0.0 | 0.00 | 0.00 | 0.00 | 37 | 1014.9 | |
| 20260905143015 | 78 | 0.0 | 0.0 | 0.00 | 0.00 | 0.00 | 37 | 1014.8 | |
| 20260905142015 | 80 | 0.0 | 0.0 | 0.00 | 0.00 | 0.00 | 36 | 1014.7 | |
| 20260905141015 | 78 | 0.0 | 0.0 | 0.00 | 0.00 | 0.00 | 38 | 1014.9 | |
| 20260905140015 | 78 | 0.0 | 0.0 | 0.00 | 0.00 | 0.00 | 36 | 1014.8 | |
| 20260905135015 | 77 | 0.0 | 0.0 | 0.00 | 0.00 | 0.00 | 37 | 1014.9 | |
| 20260905134015 | 77 | 0.0 | 0.0 | 0.00 | 0.00 | 0.00 | 37 | 1014.9 | |
| 20260905133015 | 80 | 0.0 | 0.0 | 0.00 | 0.00 | 0.00 | 34 | 1014.9 | |
| 20260905132015 | 77 | 0.0 | 0.0 | 0.00 | 0.00 | 0.00 | 36 | 1015.0 | |
| 20260905131015 | 79 | 0.0 | 0.0 | 0.00 | 0.00 | 0.00 | 36 | 1014.8 | |
| 20260905130015 | 80 | 0.0 | 0.0 | 0.00 | 0.00 | 0.00 | 35 | 1014.8 | |
| 20260905125015 | 79 | 0.0 | 0.0 | 0.00 | 0.00 | 0.00 | 36 | 1014.8 | |
| 20260905124015 | 78 | 0.0 | 0.0 | 0.00 | 0.00 | 0.00 | 37 | 1015.0 | |
| 20260905123015 | 75 | 0.0 | 0.0 | 0.00 | 0.00 | 0.00 | 40 | 1015.4 | |
| 20260905122015 | 74 | 0.0 | 0.0 | 0.00 | 0.00 | 0.00 | 42 | 1015.4 | |
| 20260905121015 | 72 | 0.0 | 0.0 | 0.00 | 0.00 | 0.00 | 46 | 1015.8 | |
| 20260905120015 | 70 | 0.0 | 0.0 | 0.00 | 0.00 | 0.00 | 47 | 1015.8 | |
| 20260905115015 | 70 | 0.0 | 0.0 | 0.00 | 0.00 | 0.00 | 47 | 1015.8 | |
| 20260905114015 | 70 | 0.0 | 0.0 | 0.00 | 0.00 | 0.00 | 48 | 1015.6 | |
| 20260905113015 | 70 | 0.0 | 0.0 | 0.00 | 0.00 | 0.00 | 47 | 1015.8 | |
| 20260905112015 | 71 | 0.0 | 0.0 | 0.00 | 0.00 | 0.00 | 46 | 1016.3 | |
| 20260905111015 | 69 | 0.0 | 0.0 | 0.00 | 0.00 | 0.00 | 53 | 1016.3 | |
| 20260905110015 | 69 | 0.0 | 0.0 | 0.00 | 0.00 | 0.00 | 54 | 1016.7 | |
| 20260905105015 | 68 | 0.0 | 0.0 | 0.00 | 0.00 | 0.00 | 65 | 1016.1 | |
| 20260905104015 | 67 | 0.0 | 0.0 | 0.00 | 0.00 | 0.00 | 74 | 1016.4 | |
| 20260905103015 | 66 | 0.0 | 0.0 | 0.00 | 0.00 | 0.00 | 75 | 1016.2 | |
| 20260905102015 | 66 | 0.0 | 0.0 | 0.00 | 0.00 | 0.00 | 73 | 1016.1 | |
| 20260905101015 | 66 | 0.0 | 0.0 | 0.00 | 0.00 | 0.00 | 61 | 1016.3 | |
| 20260905100015 | 66 | 0.0 | 0.0 | 0.00 | 0.00 | 0.00 | 57 | 1016.2 | |
| 20260905095015 | 67 | 0.0 | 0.0 | 0.00 | 0.00 | 0.00 | 54 | 1016.4 | |
| 20260905094015 | 67 | 0.0 | 0.0 | 0.00 | 0.00 | 0.00 | 50 | 1016.7 | |
| 20260905093015 | 68 | 0.0 | 0.0 | 0.00 | 0.00 | 0.00 | 50 | 1016.6 | |
| 20260905092015 | 69 | 0.0 | 0.0 | 0.00 | 0.00 | 0.00 | 49 | 1016.1 | |
| 20260905091015 | 69 | 0.0 | 0.0 | 0.00 | 0.00 | 0.00 | 51 | 1015.9 | |
| 20260905090015 | 68 | 0.0 | 0.0 | 0.00 | 0.00 | 0.00 | 52 | 1015.8 | |
| 20260905085015 | 68 | 0.0 | 0.0 | 0.00 | 0.00 | 0.00 | 52 | 1015.8 | |
| 20260905084016 | 68 | 0.0 | 0.0 | 0.00 | 0.00 | 0.00 | 51 | 1015.9 | |
| 20260905083015 | 69 | 0.0 | 0.0 | 0.00 | 0.00 | 0.00 | 50 | 1015.5 | |
| 20260905082015 | 69 | 0.0 | 0.0 | 0.00 | 0.00 | 0.00 | 49 | 1015.3 | |
| 20260905081015 | 69 | 0.0 | 0.0 | 0.00 | 0.00 | 0.00 | 49 | 1014.7 | |
| 20260905080015 | 69 | 0.0 | 0.0 | 0.00 | 0.00 | 0.00 | 50 | 1015.2 | |
| 20260905075015 | 69 | 0.0 | 0.0 | 0.00 | 0.00 | 0.00 | 51 | 1014.9 | |
| 20260905074015 | 68 | 0.0 | 0.0 | 0.00 | 0.00 | 0.00 | 52 | 1015.2 | |
| 20260905073015 | 69 | 0.0 | 0.0 | 0.00 | 0.00 | 0.00 | 51 | 1015.0 | |
| 20260905072015 | 69 | 0.0 | 0.0 | 0.00 | 0.00 | 0.00 | 52 | 1015.0 | |
| 20260905071015 | 69 | 0.0 | 0.0 | 0.00 | 0.00 | 0.00 | 51 | 1014.5 | |
| 20260905070015 | 69 | 0.0 | 0.0 | 0.00 | 0.00 | 0.00 | 52 | 1014.7 | |
| 20260905065015 | 70 | 0.0 | 0.0 | 0.00 | 0.00 | 0.00 | 55 | 1014.7 | |
| 20260905064015 | 69 | 0.0 | 0.0 | 0.00 | 0.00 | 0.00 | 62 | 1014.2 | |
| 20260905063015 | 69 | 0.0 | 0.0 | 0.00 | 0.00 | 0.00 | 63 | 1014.2 | |
| 20260905062015 | 68 | 0.0 | 0.0 | 0.00 | 0.00 | 0.00 | 64 | 1014.2 | |
| 20260905061015 | 68 | 0.0 | 0.0 | 0.00 | 0.00 | 0.00 | 69 | 1014.0 | |
| 20260905060015 | 65 | 0.0 | 0.0 | 0.00 | 0.00 | 0.00 | 70 | 1013.9 | |
| 20260905055015 | 65 | 0.0 | 0.0 | 0.00 | 0.00 | 0.00 | 72 | 1013.9 | |
| 20260905054015 | 64 | 0.0 | 0.0 | 0.00 | 0.00 | 0.00 | 75 | 1013.7 | |
| 20260905053015 | 64 | 0.0 | 0.0 | 0.00 | 0.00 | 0.00 | 75 | 1013.6 | |
| 20260905052015 | 64 | 0.0 | 0.0 | 0.00 | 0.00 | 0.00 | 76 | 1013.6 | |
| 20260905051015 | 63 | 0.0 | 0.0 | 0.00 | 0.00 | 0.00 | 78 | 1013.4 | |
| 20260905050015 | 62 | 0.0 | 0.0 | 0.00 | 0.00 | 0.00 | 79 | 1013.5 | |
| 20260905045015 | 62 | 0.0 | 0.0 | 0.00 | 0.00 | 0.00 | 80 | 1013.3 | |
| 20260905044015 | 61 | 0.0 | 0.0 | 0.00 | 0.00 | 0.00 | 80 | 1013.4 | |
| 20260905043015 | 62 | 0.0 | 0.0 | 0.00 | 0.00 | 0.00 | 79 | 1013.7 | |
| 20260905042015 | 62 | 0.0 | 0.0 | 0.00 | 0.00 | 0.00 | 76 | 1013.9 | |
| 20260905041015 | 62 | 0.0 | 0.0 | 0.00 | 0.00 | 0.00 | 76 | 1013.6 | |
| 20260905040015 | 62 | 0.0 | 0.0 | 0.00 | 0.00 | 0.00 | 78 | 1013.8 | |
| 20260905035015 | 62 | 0.0 | 0.0 | 0.00 | 0.00 | 0.00 | 77 | 1013.7 | |
| 20260905034015 | 62 | 0.0 | 0.0 | 0.00 | 0.00 | 0.00 | 78 | 1013.3 | |
| 20260905033015 | 62 | 0.0 | 0.0 | 0.00 | 0.00 | 0.00 | 77 | 1012.7 | |
| 20260905032015 | 62 | 0.0 | 0.0 | 0.00 | 0.00 | 0.00 | 76 | 1012.4 | |
| 20260905031015 | 62 | 0.0 | 0.0 | 0.00 | 0.00 | 0.00 | 76 | 1012.1 | |
| 20260905030015 | 61 | 0.0 | 0.0 | 0.00 | 0.00 | 0.00 | 82 | 1012.0 | |
| 20260905025015 | 61 | 0.0 | 0.0 | 0.00 | 0.00 | 0.00 | 81 | 1011.5 | |
| 20260905024015 | 61 | 0.0 | 0.0 | 0.00 | 0.00 | 0.00 | 81 | 1011.5 | |
| 20260905023015 | 61 | 0.0 | 0.0 | 0.00 | 0.00 | 0.00 | 80 | 1011.6 | |
| 20260905022015 | 61 | 0.0 | 0.0 | 0.00 | 0.00 | 0.00 | 79 | 1011.5 | |
| 20260905021015 | 61 | 0.0 | 0.0 | 0.00 | 0.00 | 0.00 | 79 | 1011.7 | |
| 20260905020015 | 60 | 0.0 | 0.0 | 0.00 | 0.00 | 0.00 | 81 | 1011.8 | |
| 20260905015015 | 60 | 0.0 | 0.0 | 0.00 | 0.00 | 0.00 | 82 | 1011.9 | |
| 20260905014015 | 60 | 0.0 | 0.0 | 0.00 | 0.00 | 0.00 | 81 | 1011.7 | |
| 20260905013015 | 60 | 0.0 | 0.0 | 0.00 | 0.00 | 0.00 | 82 | 1011.7 | |
| 20260905012015 | 59 | 0.0 | 0.0 | 0.00 | 0.00 | 0.00 | 83 | 1011.6 | |
| 20260905011015 | 60 | 0.0 | 0.0 | 0.00 | 0.00 | 0.00 | 80 | 1011.6 |